Terminal Aerodrome Forecast
Issued by NWS Tallahassee, FL

Home | Current Version | Previous Version | Text Only | Print | Product List | Glossary On
Versions: 1 2 3 4 5 6 7 8 9 10 11 12
000
FTUS42 KTAE 241733
TAFTLH
TAF
KTLH 241733Z 2418/2518 14009KT P6SM BKN035
     FM250100 10005KT P6SM SCT200
     FM251400 13008KT P6SM SCT030 SCT150=

USA.gov is the U.S. government's official web portal to all federal, state and local government web resources and services.